sensor_id;sensor_type;location;lat;lon;timestamp;pressure;altitude;pressure_sealevel;temperature;humidity
77281;BME280;66339;47.262;17.144;2023-03-31T00:02:24;99977.78;;;20.91;43.90
77281;BME280;66339;47.262;17.144;2023-03-31T00:04:55;99990.44;;;20.91;43.89
77281;BME280;66339;47.262;17.144;2023-03-31T00:07:28;99973.47;;;20.90;43.93
77281;BME280;66339;47.262;17.144;2023-03-31T00:09:56;99974.28;;;20.91;43.84
77281;BME280;66339;47.262;17.144;2023-03-31T00:12:44;99966.50;;;20.89;44.14
77281;BME280;66339;47.262;17.144;2023-03-31T00:15:12;99970.28;;;20.88;43.92
77281;BME280;66339;47.262;17.144;2023-03-31T00:17:41;99960.34;;;20.89;44.06
77281;BME280;66339;47.262;17.144;2023-03-31T00:20:15;99964.91;;;20.88;44.11
77281;BME280;66339;47.262;17.144;2023-03-31T00:22:49;99967.88;;;20.87;43.88
77281;BME280;66339;47.262;17.144;2023-03-31T00:25:19;99964.41;;;20.86;43.96
77281;BME280;66339;47.262;17.144;2023-03-31T00:27:47;99953.38;;;20.88;43.84
77281;BME280;66339;47.262;17.144;2023-03-31T00:30:18;99940.19;;;20.86;43.92
77281;BME280;66339;47.262;17.144;2023-03-31T00:32:48;99942.09;;;20.86;43.90
77281;BME280;66339;47.262;17.144;2023-03-31T00:35:19;99942.88;;;20.86;43.92
77281;BME280;66339;47.262;17.144;2023-03-31T00:37:50;99939.19;;;20.82;44.03
77281;BME280;66339;47.262;17.144;2023-03-31T00:40:28;99936.22;;;20.83;43.94
77281;BME280;66339;47.262;17.144;2023-03-31T00:43:00;99921.47;;;20.81;44.03
77281;BME280;66339;47.262;17.144;2023-03-31T00:45:35;99923.06;;;20.82;43.90
77281;BME280;66339;47.262;17.144;2023-03-31T00:48:16;99916.91;;;20.81;43.89
77281;BME280;66339;47.262;17.144;2023-03-31T00:50:51;99926.06;;;20.80;43.92
77281;BME280;66339;47.262;17.144;2023-03-31T00:53:25;99927.94;;;20.80;43.96
77281;BME280;66339;47.262;17.144;2023-03-31T00:56:05;99924.75;;;20.78;43.96
77281;BME280;66339;47.262;17.144;2023-03-31T00:58:46;99921.25;;;20.77;43.98
77281;BME280;66339;47.262;17.144;2023-03-31T01:01:18;99926.63;;;20.77;43.90
77281;BME280;66339;47.262;17.144;2023-03-31T01:03:53;99935.50;;;20.78;43.90
77281;BME280;66339;47.262;17.144;2023-03-31T01:06:28;99920.47;;;20.77;43.94
77281;BME280;66339;47.262;17.144;2023-03-31T01:09:05;99917.00;;;20.76;43.91
77281;BME280;66339;47.262;17.144;2023-03-31T01:14:18;99908.13;;;20.76;43.90
77281;BME280;66339;47.262;17.144;2023-03-31T01:16:51;99914.56;;;20.75;43.89
77281;BME280;66339;47.262;17.144;2023-03-31T01:19:46;99904.91;;;20.74;43.87
77281;BME280;66339;47.262;17.144;2023-03-31T01:25:47;99889.91;;;20.73;43.85
77281;BME280;66339;47.262;17.144;2023-03-31T01:37:18;99898.53;;;20.70;43.89
77281;BME280;66339;47.262;17.144;2023-03-31T01:48:18;99899.12;;;20.67;43.89
77281;BME280;66339;47.262;17.144;2023-03-31T01:50:58;99897.53;;;20.66;43.93
77281;BME280;66339;47.262;17.144;2023-03-31T01:54:07;99892.16;;;20.66;43.87
77281;BME280;66339;47.262;17.144;2023-03-31T01:56:51;99886.78;;;20.66;43.92
77281;BME280;66339;47.262;17.144;2023-03-31T01:59:30;99890.56;;;20.65;43.82
77281;BME280;66339;47.262;17.144;2023-03-31T02:02:10;99884.09;;;20.66;43.99
77281;BME280;66339;47.262;17.144;2023-03-31T02:04:58;99878.72;;;20.66;43.96
77281;BME280;66339;47.262;17.144;2023-03-31T02:07:43;99872.03;;;20.63;43.98
77281;BME280;66339;47.262;17.144;2023-03-31T02:10:17;99873.13;;;20.62;43.89
77281;BME280;66339;47.262;17.144;2023-03-31T02:12:52;99865.88;;;20.63;43.99
77281;BME280;66339;47.262;17.144;2023-03-31T02:15:27;99865.88;;;20.63;43.82
77281;BME280;66339;47.262;17.144;2023-03-31T02:17:57;99863.50;;;20.61;43.90
77281;BME280;66339;47.262;17.144;2023-03-31T02:20:32;99864.28;;;20.62;43.88
77281;BME280;66339;47.262;17.144;2023-03-31T02:23:00;99851.94;;;20.61;43.81
77281;BME280;66339;47.262;17.144;2023-03-31T02:25:42;99853.03;;;20.59;43.80
77281;BME280;66339;47.262;17.144;2023-03-31T02:28:19;99854.63;;;20.61;43.80
77281;BME280;66339;47.262;17.144;2023-03-31T02:31:12;99854.13;;;20.58;43.88
77281;BME280;66339;47.262;17.144;2023-03-31T02:33:48;99850.34;;;20.59;43.85
77281;BME280;66339;47.262;17.144;2023-03-31T02:36:25;99857.91;;;20.57;43.91
77281;BME280;66339;47.262;17.144;2023-03-31T02:38:57;99856.31;;;20.56;43.84
77281;BME280;66339;47.262;17.144;2023-03-31T02:41:28;99850.94;;;20.56;43.84
77281;BME280;66339;47.262;17.144;2023-03-31T02:44:00;99845.56;;;20.56;43.87
77281;BME280;66339;47.262;17.144;2023-03-31T02:46:34;99843.16;;;20.55;43.96
77281;BME280;66339;47.262;17.144;2023-03-31T02:49:06;99845.56;;;20.56;43.96
77281;BME280;66339;47.262;17.144;2023-03-31T03:06:21;99827.91;;;20.50;43.78
77281;BME280;66339;47.262;17.144;2023-03-31T03:09:10;99826.34;;;20.49;43.87
77281;BME280;66339;47.262;17.144;2023-03-31T03:17:36;99806.50;;;20.45;43.80
77281;BME280;66339;47.262;17.144;2023-03-31T03:20:10;99801.13;;;20.45;43.84
77281;BME280;66339;47.262;17.144;2023-03-31T03:22:44;99812.66;;;20.46;43.88
77281;BME280;66339;47.262;17.144;2023-03-31T03:25:17;99804.91;;;20.44;43.91
77281;BME280;66339;47.262;17.144;2023-03-31T03:27:47;99799.53;;;20.44;43.86
77281;BME280;66339;47.262;17.144;2023-03-31T03:30:20;99799.53;;;20.44;43.96
77281;BME280;66339;47.262;17.144;2023-03-31T03:32:54;99797.91;;;20.43;44.00
77281;BME280;66339;47.262;17.144;2023-03-31T03:35:21;99793.66;;;20.42;44.04
77281;BME280;66339;47.262;17.144;2023-03-31T03:37:58;99789.06;;;20.43;44.04
77281;BME280;66339;47.262;17.144;2023-03-31T03:40:29;99778.63;;;20.41;44.15
77281;BME280;66339;47.262;17.144;2023-03-31T03:42:57;99778.63;;;20.41;44.19
77281;BME280;66339;47.262;17.144;2023-03-31T03:45:28;99784.31;;;20.40;44.21
77281;BME280;66339;47.262;17.144;2023-03-31T03:48:04;99782.41;;;20.40;44.16
77281;BME280;66339;47.262;17.144;2023-03-31T03:50:40;99777.03;;;20.40;44.30
77281;BME280;66339;47.262;17.144;2023-03-31T03:53:08;99773.84;;;20.38;44.15
77281;BME280;66339;47.262;17.144;2023-03-31T03:55:38;99771.94;;;20.39;44.30
77281;BME280;66339;47.262;17.144;2023-03-31T03:58:06;99773.03;;;20.38;44.16
77281;BME280;66339;47.262;17.144;2023-03-31T04:00:40;99780.00;;;20.39;44.09
77281;BME280;66339;47.262;17.144;2023-03-31T04:03:18;99774.94;;;20.37;44.36
77281;BME280;66339;47.262;17.144;2023-03-31T04:05:48;99770.66;;;20.36;44.19
77281;BME280;66339;47.262;17.144;2023-03-31T04:08:22;99771.47;;;20.37;44.21
77281;BME280;66339;47.262;17.144;2023-03-31T04:11:02;99767.47;;;20.34;44.20
77281;BME280;66339;47.262;17.144;2023-03-31T04:13:33;99771.72;;;20.35;44.30
77281;BME280;66339;47.262;17.144;2023-03-31T04:16:04;99767.47;;;20.34;44.21
77281;BME280;66339;47.262;17.144;2023-03-31T04:18:38;99766.66;;;20.33;44.25
77281;BME280;66339;47.262;17.144;2023-03-31T04:21:09;99764.28;;;20.32;44.13
77281;BME280;66339;47.262;17.144;2023-03-31T04:23:39;99759.72;;;20.32;44.13
77281;BME280;66339;47.262;17.144;2023-03-31T04:26:11;99758.91;;;20.32;44.29
77281;BME280;66339;47.262;17.144;2023-03-31T04:28:46;99764.28;;;20.32;44.26
77281;BME280;66339;47.262;17.144;2023-03-31T04:31:20;99768.03;;;20.31;44.34
77281;BME280;66339;47.262;17.144;2023-03-31T04:33:52;99761.09;;;20.30;44.40
77281;BME280;66339;47.262;17.144;2023-03-31T04:36:22;99759.50;;;20.29;44.15
77281;BME280;66339;47.262;17.144;2023-03-31T04:38:51;99757.91;;;20.28;43.95
77281;BME280;66339;47.262;17.144;2023-03-31T04:41:20;99754.41;;;20.27;43.95
77281;BME280;66339;47.262;17.144;2023-03-31T04:43:49;99756.59;;;20.25;43.99
77281;BME280;66339;47.262;17.144;2023-03-31T04:46:20;99753.12;;;20.25;43.95
77281;BME280;66339;47.262;17.144;2023-03-31T04:48:51;99751.50;;;20.24;44.00
77281;BME280;66339;47.262;17.144;2023-03-31T04:51:19;99742.97;;;20.22;43.92
77281;BME280;66339;47.262;17.144;2023-03-31T04:53:49;99738.69;;;20.21;44.10
77281;BME280;66339;47.262;17.144;2023-03-31T04:56:20;99746.75;;;20.21;43.92
77281;BME280;66339;47.262;17.144;2023-03-31T04:58:51;99734.37;;;20.20;43.96
77281;BME280;66339;47.262;17.144;2023-03-31T05:01:21;99739.75;;;20.20;44.07
77281;BME280;66339;47.262;17.144;2023-03-31T05:03:49;99726.63;;;20.18;44.19
77281;BME280;66339;47.262;17.144;2023-03-31T05:06:26;99732.81;;;20.19;44.09
77281;BME280;66339;47.262;17.144;2023-03-31T05:08:53;99729.31;;;20.18;43.95
77281;BME280;66339;47.262;17.144;2023-03-31T05:11:24;99726.94;;;20.17;44.08
77281;BME280;66339;47.262;17.144;2023-03-31T05:13:58;99724.25;;;20.17;43.97
77281;BME280;66339;47.262;17.144;2023-03-31T05:16:26;99720.47;;;20.18;43.93
77281;BME280;66339;47.262;17.144;2023-03-31T05:18:57;99715.69;;;20.15;44.04
77281;BME280;66339;47.262;17.144;2023-03-31T05:21:30;99707.34;;;20.16;44.11
77281;BME280;66339;47.262;17.144;2023-03-31T05:24:01;99708.16;;;20.17;44.20
77281;BME280;66339;47.262;17.144;2023-03-31T05:26:34;99697.41;;;20.17;44.06
77281;BME280;66339;47.262;17.144;2023-03-31T05:29:14;99688.25;;;20.18;44.27
77281;BME280;66339;47.262;17.144;2023-03-31T05:31:44;99686.38;;;20.18;44.29
77281;BME280;66339;47.262;17.144;2023-03-31T05:34:17;99683.69;;;20.18;44.30
77281;BME280;66339;47.262;17.144;2023-03-31T05:36:47;99687.47;;;20.17;44.50
77281;BME280;66339;47.262;17.144;2023-03-31T05:39:19;99684.47;;;20.19;44.50
77281;BME280;66339;47.262;17.144;2023-03-31T05:41:51;99679.09;;;20.19;44.36
77281;BME280;66339;47.262;17.144;2023-03-31T05:44:21;99682.88;;;20.18;44.70
77281;BME280;66339;47.262;17.144;2023-03-31T05:46:58;99679.09;;;20.19;44.67
77281;BME280;66339;47.262;17.144;2023-03-31T05:49:29;99681.78;;;20.19;44.85
77281;BME280;66339;47.262;17.144;2023-03-31T05:52:02;99673.72;;;20.19;44.83
77281;BME280;66339;47.262;17.144;2023-03-31T05:54:30;99675.63;;;20.18;44.86
77281;BME280;66339;47.262;17.144;2023-03-31T05:56:58;99676.41;;;20.19;44.76
77281;BME280;66339;47.262;17.144;2023-03-31T05:59:26;99671.56;;;20.21;44.63
77281;BME280;66339;47.262;17.144;2023-03-31T06:01:54;99673.16;;;20.22;44.71
77281;BME280;66339;47.262;17.144;2023-03-31T06:04:25;99670.94;;;20.24;44.79
77281;BME280;66339;47.262;17.144;2023-03-31T06:06:54;99668.25;;;20.24;44.89
77281;BME280;66339;47.262;17.144;2023-03-31T06:09:24;99661.81;;;20.25;44.94
77281;BME280;66339;47.262;17.144;2023-03-31T06:11:52;99664.19;;;20.26;45.41
77281;BME280;66339;47.262;17.144;2023-03-31T06:14:19;99666.59;;;20.28;46.02
77281;BME280;66339;47.262;17.144;2023-03-31T06:16:50;99666.00;;;20.31;46.08
77281;BME280;66339;47.262;17.144;2023-03-31T06:19:26;99665.41;;;20.34;46.04
77281;BME280;66339;47.262;17.144;2023-03-31T06:21:53;99668.59;;;20.36;46.01
77281;BME280;66339;47.262;17.144;2023-03-31T06:24:28;99670.97;;;20.38;45.93
77281;BME280;66339;47.262;17.144;2023-03-31T06:26:58;99670.38;;;20.41;46.09
77281;BME280;66339;47.262;17.144;2023-03-31T06:29:29;99659.66;;;20.41;46.17
77281;BME280;66339;47.262;17.144;2023-03-31T06:32:00;99659.34;;;20.42;45.80
77281;BME280;66339;47.262;17.144;2023-03-31T06:34:32;99652.88;;;20.43;45.70
77281;BME280;66339;47.262;17.144;2023-03-31T06:37:03;99654.97;;;20.46;45.24
77281;BME280;66339;47.262;17.144;2023-03-31T06:39:30;99654.28;;;20.54;45.52
77281;BME280;66339;47.262;17.144;2023-03-31T06:41:58;99652.72;;;20.53;45.69
77281;BME280;66339;47.262;17.144;2023-03-31T06:44:34;99650.53;;;20.55;45.62
77281;BME280;66339;47.262;17.144;2023-03-31T06:47:02;99645.75;;;20.52;45.30
77281;BME280;66339;47.262;17.144;2023-03-31T06:49:30;99644.66;;;20.53;45.55
77281;BME280;66339;47.262;17.144;2023-03-31T06:51:57;99637.69;;;20.52;45.86
77281;BME280;66339;47.262;17.144;2023-03-31T06:54:25;99640.38;;;20.52;45.82
77281;BME280;66339;47.262;17.144;2023-03-31T06:56:53;99637.19;;;20.50;45.87
77281;BME280;66339;47.262;17.144;2023-03-31T06:59:23;99634.81;;;20.49;46.04
77281;BME280;66339;47.262;17.144;2023-03-31T07:01:53;99628.09;;;20.46;46.06
77281;BME280;66339;47.262;17.144;2023-03-31T07:04:24;99620.84;;;20.47;46.24
77281;BME280;66339;47.262;17.144;2023-03-31T07:06:57;99614.66;;;20.46;46.17
77281;BME280;66339;47.262;17.144;2023-03-31T07:09:31;99614.09;;;20.49;46.28
77281;BME280;66339;47.262;17.144;2023-03-31T07:12:02;99615.69;;;20.50;45.75
77281;BME280;66339;47.262;17.144;2023-03-31T07:14:33;99617.06;;;20.48;45.89
77281;BME280;66339;47.262;17.144;2023-03-31T07:17:01;99631.22;;;20.53;46.11
77281;BME280;66339;47.262;17.144;2023-03-31T07:19:32;99629.03;;;20.55;45.65
77281;BME280;66339;47.262;17.144;2023-03-31T07:22:07;99620.66;;;20.57;45.52
77281;BME280;66339;47.262;17.144;2023-03-31T07:24:35;99614.50;;;20.56;45.56
77281;BME280;66339;47.262;17.144;2023-03-31T07:27:02;99608.03;;;20.57;45.78
77281;BME280;66339;47.262;17.144;2023-03-31T07:29:32;99605.84;;;20.59;45.19
77281;BME280;66339;47.262;17.144;2023-03-31T07:31:59;99610.13;;;20.61;44.62
77281;BME280;66339;47.262;17.144;2023-03-31T07:34:29;99602.53;;;20.63;44.35
77281;BME280;66339;47.262;17.144;2023-03-31T07:37:06;99596.69;;;20.61;44.28
77281;BME280;66339;47.262;17.144;2023-03-31T07:39:37;99585.44;;;20.58;45.08
77281;BME280;66339;47.262;17.144;2023-03-31T07:42:12;99582.47;;;20.60;45.06
77281;BME280;66339;47.262;17.144;2023-03-31T07:44:44;99584.84;;;20.62;45.08
77281;BME280;66339;47.262;17.144;2023-03-31T07:47:14;99573.31;;;20.61;45.37
77281;BME280;66339;47.262;17.144;2023-03-31T07:49:48;99579.47;;;20.62;45.23
77281;BME280;66339;47.262;17.144;2023-03-31T07:52:18;99584.84;;;20.62;45.29
77281;BME280;66339;47.262;17.144;2023-03-31T07:54:55;99578.66;;;20.61;45.32
77281;BME280;66339;47.262;17.144;2023-03-31T07:57:27;99577.88;;;20.61;45.25
77281;BME280;66339;47.262;17.144;2023-03-31T07:59:58;99571.09;;;20.63;45.39
77281;BME280;66339;47.262;17.144;2023-03-31T08:02:30;99571.91;;;20.64;45.47
77281;BME280;66339;47.262;17.144;2023-03-31T08:05:00;99569.22;;;20.64;45.45
77281;BME280;66339;47.262;17.144;2023-03-31T08:07:27;99569.69;;;20.66;45.50
77281;BME280;66339;47.262;17.144;2023-03-31T08:10:05;99563.72;;;20.69;45.47
77281;BME280;66339;47.262;17.144;2023-03-31T08:12:35;99558.84;;;20.71;45.45
77281;BME280;66339;47.262;17.144;2023-03-31T08:15:04;99557.25;;;20.70;45.37
77281;BME280;66339;47.262;17.144;2023-03-31T08:17:37;99549.97;;;20.70;45.32
77281;BME280;66339;47.262;17.144;2023-03-31T08:20:05;99550.50;;;20.72;45.26
77281;BME280;66339;47.262;17.144;2023-03-31T08:22:43;99545.91;;;20.73;45.25
77281;BME280;66339;47.262;17.144;2023-03-31T08:25:12;99553.97;;;20.73;45.39
77281;BME280;66339;47.262;17.144;2023-03-31T08:27:43;99560.13;;;20.73;45.34
77281;BME280;66339;47.262;17.144;2023-03-31T08:30:10;99555.56;;;20.74;45.45
77281;BME280;66339;47.262;17.144;2023-03-31T08:32:41;99545.31;;;20.76;45.47
77281;BME280;66339;47.262;17.144;2023-03-31T08:35:08;99542.03;;;20.79;45.46
77281;BME280;66339;47.262;17.144;2023-03-31T08:37:43;99534.44;;;20.81;45.44
77281;BME280;66339;47.262;17.144;2023-03-31T08:40:20;99526.88;;;20.83;45.36
77281;BME280;66339;47.262;17.144;2023-03-31T08:42:54;99524.66;;;20.85;45.38
77281;BME280;66339;47.262;17.144;2023-03-31T08:45:45;99523.09;;;20.84;45.40
77281;BME280;66339;47.262;17.144;2023-03-31T08:51:38;99511.72;;;20.87;45.38
77281;BME280;66339;47.262;17.144;2023-03-31T08:53:51;99506.34;;;20.87;45.38
77281;BME280;66339;47.262;17.144;2023-03-31T08:56:24;99489.59;;;20.90;45.28
77281;BME280;66339;47.262;17.144;2023-03-31T08:58:59;99487.41;;;20.92;45.19
77281;BME280;66339;47.262;17.144;2023-03-31T09:01:26;99482.63;;;20.89;45.24
77281;BME280;66339;47.262;17.144;2023-03-31T09:04:41;99482.03;;;20.92;45.17
77281;BME280;66339;47.262;17.144;2023-03-31T09:13:28;99467.63;;;20.88;45.24
77281;BME280;66339;47.262;17.144;2023-03-31T09:16:13;99464.44;;;20.86;45.22
77281;BME280;66339;47.262;17.144;2023-03-31T09:18:45;99458.25;;;20.86;45.19
77281;BME280;66339;47.262;17.144;2023-03-31T09:21:30;99466.03;;;20.87;45.16
77281;BME280;66339;47.262;17.144;2023-03-31T09:24:12;99457.00;;;20.83;45.22
77281;BME280;66339;47.262;17.144;2023-03-31T09:29:22;99450.00;;;20.82;45.18
77281;BME280;66339;47.262;17.144;2023-03-31T09:31:53;99445.28;;;20.79;45.22
77281;BME280;66339;47.262;17.144;2023-03-31T09:34:31;99439.91;;;20.79;45.29
77281;BME280;66339;47.262;17.144;2023-03-31T09:37:03;99445.28;;;20.79;45.21
77281;BME280;66339;47.262;17.144;2023-03-31T09:39:37;99429.94;;;20.79;45.24
77281;BME280;66339;47.262;17.144;2023-03-31T09:42:09;99421.09;;;20.79;45.24
77281;BME280;66339;47.262;17.144;2023-03-31T09:44:49;99419.19;;;20.79;45.31
77281;BME280;66339;47.262;17.144;2023-03-31T09:47:41;99409.22;;;20.80;45.33
77281;BME280;66339;47.262;17.144;2023-03-31T09:50:08;99411.78;;;20.85;45.35
77281;BME280;66339;47.262;17.144;2023-03-31T09:52:51;99411.78;;;20.85;45.35
77281;BME280;66339;47.262;17.144;2023-03-31T09:55:28;99405.00;;;20.88;45.28
77281;BME280;66339;47.262;17.144;2023-03-31T09:58:07;99401.53;;;20.87;45.28
77281;BME280;66339;47.262;17.144;2023-03-31T10:00:40;99404.41;;;20.91;45.22
77281;BME280;66339;47.262;17.144;2023-03-31T10:03:12;99387.97;;;20.92;45.22
77281;BME280;66339;47.262;17.144;2023-03-31T10:05:54;99378.31;;;20.91;45.25
77281;BME280;66339;47.262;17.144;2023-03-31T10:08:31;99369.94;;;20.93;45.19
77281;BME280;66339;47.262;17.144;2023-03-31T10:11:09;99359.97;;;20.93;45.13
77281;BME280;66339;47.262;17.144;2023-03-31T10:14:10;99358.38;;;20.92;45.21
77281;BME280;66339;47.262;17.144;2023-03-31T10:16:55;99340.03;;;20.94;45.15
77281;BME280;66339;47.262;17.144;2023-03-31T10:19:27;99334.19;;;20.92;45.17
77281;BME280;66339;47.262;17.144;2023-03-31T10:22:08;99328.81;;;20.92;45.19
77281;BME280;66339;47.262;17.144;2023-03-31T10:24:44;99326.12;;;20.92;45.19
77281;BME280;66339;47.262;17.144;2023-03-31T10:27:28;99317.28;;;20.92;45.23
77281;BME280;66339;47.262;17.144;2023-03-31T10:30:00;99311.41;;;20.90;45.20
77281;BME280;66339;47.262;17.144;2023-03-31T10:32:33;99311.41;;;20.90;45.21
77281;BME280;66339;47.262;17.144;2023-03-31T10:37:47;99292.91;;;20.88;45.30
77281;BME280;66339;47.262;17.144;2023-03-31T10:40:20;99288.50;;;20.92;45.28
77281;BME280;66339;47.262;17.144;2023-03-31T10:43:32;99278.53;;;20.93;45.33
77281;BME280;66339;47.262;17.144;2023-03-31T10:45:57;99280.91;;;20.94;45.44
77281;BME280;66339;47.262;17.144;2023-03-31T10:48:30;99273.34;;;20.96;45.47
77281;BME280;66339;47.262;17.144;2023-03-31T10:54:00;99260.53;;;21.02;45.23
77281;BME280;66339;47.262;17.144;2023-03-31T10:56:41;99256.59;;;20.99;45.30
77281;BME280;66339;47.262;17.144;2023-03-31T10:59:23;99250.09;;;21.00;45.33
77281;BME280;66339;47.262;17.144;2023-03-31T11:02:08;99244.22;;;20.98;45.29
77281;BME280;66339;47.262;17.144;2023-03-31T11:04:50;99249.59;;;20.98;45.33
77281;BME280;66339;47.262;17.144;2023-03-31T11:13:44;99248.03;;;20.97;45.34
77281;BME280;66339;47.262;17.144;2023-03-31T11:19:07;99234.91;;;20.96;45.42
77281;BME280;66339;47.262;17.144;2023-03-31T11:24:40;99215.94;;;20.92;46.36
77281;BME280;66339;47.262;17.144;2023-03-31T11:27:23;99201.88;;;20.95;46.26
77281;BME280;66339;47.262;17.144;2023-03-31T11:33:01;99191.28;;;20.99;45.76
77281;BME280;66339;47.262;17.144;2023-03-31T11:36:08;99192.25;;;21.03;45.70
77281;BME280;66339;47.262;17.144;2023-03-31T11:38:50;99187.66;;;21.03;45.67
77281;BME280;66339;47.262;17.144;2023-03-31T11:41:22;99179.88;;;21.02;45.69
77281;BME280;66339;47.262;17.144;2023-03-31T11:43:58;99165.34;;;21.03;45.58
77281;BME280;66339;47.262;17.144;2023-03-31T11:49:03;99175.28;;;21.02;45.51
77281;BME280;66339;47.262;17.144;2023-03-31T11:51:43;99184.19;;;21.03;45.48
77281;BME280;66339;47.262;17.144;2023-03-31T11:54:29;99184.47;;;21.01;45.49
77281;BME280;66339;47.262;17.144;2023-03-31T11:57:00;99175.16;;;20.99;45.42
77281;BME280;66339;47.262;17.144;2023-03-31T11:59:31;99175.44;;;20.97;45.53
77281;BME280;66339;47.262;17.144;2023-03-31T12:02:25;99174.34;;;20.98;45.45
77281;BME280;66339;47.262;17.144;2023-03-31T12:04:58;99172.75;;;20.97;45.37
77281;BME280;66339;47.262;17.144;2023-03-31T12:07:34;99176.56;;;20.96;45.41
77281;BME280;66339;47.262;17.144;2023-03-31T12:10:18;99169.63;;;20.95;45.34
77281;BME280;66339;47.262;17.144;2023-03-31T12:16:16;99141.44;;;20.93;45.42
77281;BME280;66339;47.262;17.144;2023-03-31T12:21:28;99130.53;;;20.89;45.41
77281;BME280;66339;47.262;17.144;2023-03-31T12:23:59;99120.91;;;20.88;45.44
77281;BME280;66339;47.262;17.144;2023-03-31T12:29:06;99122.31;;;20.86;45.44
77281;BME280;66339;47.262;17.144;2023-03-31T12:31:42;99122.31;;;20.86;45.55
77281;BME280;66339;47.262;17.144;2023-03-31T12:34:15;99119.94;;;20.84;45.64
77281;BME280;66339;47.262;17.144;2023-03-31T12:46:02;99127.84;;;20.89;45.46
77281;BME280;66339;47.262;17.144;2023-03-31T12:57:04;99097.50;;;20.89;45.31
77281;BME280;66339;47.262;17.144;2023-03-31T12:59:45;99094.47;;;20.90;45.27
77281;BME280;66339;47.262;17.144;2023-03-31T13:02:35;99083.28;;;20.88;45.34
77281;BME280;66339;47.262;17.144;2023-03-31T13:08:05;99080.88;;;20.87;45.33
77281;BME280;66339;47.262;17.144;2023-03-31T13:10:57;99075.81;;;20.85;45.33
77281;BME280;66339;47.262;17.144;2023-03-31T13:13:26;99078.84;;;20.83;45.46
77281;BME280;66339;47.262;17.144;2023-03-31T13:15:55;99067.78;;;20.85;45.64
77281;BME280;66339;47.262;17.144;2023-03-31T13:18:23;99055.28;;;20.80;45.83
77281;BME280;66339;47.262;17.144;2023-03-31T13:21:02;99044.03;;;20.78;45.92
77281;BME280;66339;47.262;17.144;2023-03-31T13:23:34;99048.16;;;20.76;46.11
77281;BME280;66339;47.262;17.144;2023-03-31T13:26:03;99033.63;;;20.77;46.16
77281;BME280;66339;47.262;17.144;2023-03-31T13:28:38;99022.25;;;20.80;46.14
77281;BME280;66339;47.262;17.144;2023-03-31T13:31:12;99017.66;;;20.80;46.13
77281;BME280;66339;47.262;17.144;2023-03-31T13:33:52;99016.88;;;20.80;46.40
77281;BME280;66339;47.262;17.144;2023-03-31T13:47:45;99011.81;;;20.87;46.16
77281;BME280;66339;47.262;17.144;2023-03-31T14:07:54;98971.66;;;20.99;45.77
77281;BME280;66339;47.262;17.144;2023-03-31T14:10:27;98970.19;;;21.02;45.35
77281;BME280;66339;47.262;17.144;2023-03-31T14:13:18;98963.41;;;21.04;45.91
77281;BME280;66339;47.262;17.144;2023-03-31T14:15:55;98964.19;;;21.05;46.17
77281;BME280;66339;47.262;17.144;2023-03-31T14:18:33;98953.16;;;21.06;46.28
77281;BME280;66339;47.262;17.144;2023-03-31T14:21:25;98953.16;;;21.06;46.12
77281;BME280;66339;47.262;17.144;2023-03-31T14:24:22;98939.03;;;21.09;46.10
77281;BME280;66339;47.262;17.144;2023-03-31T14:30:20;98939.03;;;21.09;45.96
77281;BME280;66339;47.262;17.144;2023-03-31T14:38:35;98932.72;;;21.05;46.04
77281;BME280;66339;47.262;17.144;2023-03-31T14:41:12;98920.88;;;21.06;46.19
77281;BME280;66339;47.262;17.144;2023-03-31T14:43:53;98904.44;;;21.08;46.52
77281;BME280;66339;47.262;17.144;2023-03-31T14:46:25;98916.91;;;21.13;46.48
77281;BME280;66339;47.262;17.144;2023-03-31T14:49:16;98924.63;;;21.14;46.45
77281;BME280;66339;47.262;17.144;2023-03-31T14:51:45;98922.75;;;21.15;46.16
77281;BME280;66339;47.262;17.144;2023-03-31T14:54:16;98910.25;;;21.19;45.68
77281;BME280;66339;47.262;17.144;2023-03-31T14:56:50;98918.63;;;21.17;45.50
77281;BME280;66339;47.262;17.144;2023-03-31T14:59:24;98915.62;;;21.19;45.25
77281;BME280;66339;47.262;17.144;2023-03-31T15:01:56;98915.94;;;21.17;45.29
77281;BME280;66339;47.262;17.144;2023-03-31T15:04:30;98904.72;;;21.15;45.33
77281;BME280;66339;47.262;17.144;2023-03-31T15:07:09;98903.94;;;21.15;45.18
77281;BME280;66339;47.262;17.144;2023-03-31T15:09:37;98900.78;;;21.13;45.00
77281;BME280;66339;47.262;17.144;2023-03-31T15:12:10;98903.00;;;21.11;44.92
77281;BME280;66339;47.262;17.144;2023-03-31T15:14:51;98899.84;;;21.08;45.03
77281;BME280;66339;47.262;17.144;2023-03-31T15:17:27;98897.16;;;21.08;45.16
77281;BME280;66339;47.262;17.144;2023-03-31T15:20:00;98893.19;;;21.06;45.06
77281;BME280;66339;47.262;17.144;2023-03-31T15:22:37;98897.47;;;21.07;44.89
77281;BME280;66339;47.262;17.144;2023-03-31T15:25:05;98903.16;;;21.05;44.89
77281;BME280;66339;47.262;17.144;2023-03-31T15:27:41;98905.22;;;21.08;44.69
77281;BME280;66339;47.262;17.144;2023-03-31T15:30:22;98899.84;;;21.08;44.67
77281;BME280;66339;47.262;17.144;2023-03-31T15:32:54;98899.03;;;21.08;44.53
77281;BME280;66339;47.262;17.144;2023-03-31T15:35:47;98897.16;;;21.08;44.45
77281;BME280;66339;47.262;17.144;2023-03-31T15:38:21;98905.84;;;21.05;44.65
77281;BME280;66339;47.262;17.144;2023-03-31T15:40:57;98911.22;;;21.05;44.60
77281;BME280;66339;47.262;17.144;2023-03-31T15:43:29;98931.16;;;21.04;44.69
77281;BME280;66339;47.262;17.144;2023-03-31T15:49:20;98908.72;;;21.00;45.29
77281;BME280;66339;47.262;17.144;2023-03-31T15:51:56;98903.34;;;21.00;45.55
77281;BME280;66339;47.262;17.144;2023-03-31T15:54:42;98901.75;;;20.99;45.68
77281;BME280;66339;47.262;17.144;2023-03-31T15:57:16;98897.03;;;20.96;45.78
77281;BME280;66339;47.262;17.144;2023-03-31T15:59:53;98901.59;;;20.96;45.85